Map

Track Data

SID SEASON NUMBER BASIN SUBBASIN NAME ISO_TIME NATURE LAT LON WMO_WIND WMO_PRES WMO_AGENCY TRACK_TYPE DIST2LAND LANDFALL IFLAG USA_AGENCY USA_ATCF_ID USA_LAT USA_LON USA_RECORD USA_STATUS USA_WIND USA_PRES USA_SSHS USA_R34_NE USA_R34_SE USA_R34_SW USA_R34_NW USA_R50_NE USA_R50_SE USA_R50_SW USA_R50_NW USA_R64_NE USA_R64_SE USA_R64_SW USA_R64_NW USA_POCI USA_ROCI USA_RMW USA_EYE TOKYO_LAT TOKYO_LON TOKYO_GRADE TOKYO_WIND TOKYO_PRES TOKYO_R50_DIR TOKYO_R50_LONG TOKYO_R50_SHORT TOKYO_R30_DIR TOKYO_R30_LONG TOKYO_R30_SHORT TOKYO_LAND CMA_LAT CMA_LON CMA_CAT CMA_WIND CMA_PRES HKO_LAT HKO_LON HKO_CAT HKO_WIND HKO_PRES NEWDELHI_LAT NEWDELHI_LON NEWDELHI_GRADE NEWDELHI_WIND NEWDELHI_PRES NEWDELHI_CI NEWDELHI_DP NEWDELHI_POCI REUNION_LAT REUNION_LON REUNION_TYPE REUNION_WIND REUNION_PRES REUNION_TNUM REUNION_CI REUNION_RMW REUNION_R34_NE REUNION_R34_SE REUNION_R34_SW REUNION_R34_NW REUNION_R50_NE REUNION_R50_SE REUNION_R50_SW REUNION_R50_NW REUNION_R64_NE REUNION_R64_SE REUNION_R64_SW REUNION_R64_NW BOM_LAT BOM_LON BOM_TYPE BOM_WIND BOM_PRES BOM_TNUM BOM_CI BOM_RMW BOM_R34_NE BOM_R34_SE BOM_R34_SW BOM_R34_NW BOM_R50_NE BOM_R50_SE BOM_R50_SW BOM_R50_NW BOM_R64_NE BOM_R64_SE BOM_R64_SW BOM_R64_NW BOM_ROCI BOM_POCI BOM_EYE BOM_POS_METHOD BOM_PRES_METHOD NADI_LAT NADI_LON NADI_CAT NADI_WIND NADI_PRES WELLINGTON_LAT WELLINGTON_LON WELLINGTON_WIND WELLINGTON_PRES DS824_LAT DS824_LON DS824_STAGE DS824_WIND DS824_PRES TD9636_LAT TD9636_LON TD9636_STAGE TD9636_WIND TD9636_PRES TD9635_LAT TD9635_LON TD9635_WIND TD9635_PRES TD9635_ROCI NEUMANN_LAT NEUMANN_LON NEUMANN_CLASS NEUMANN_WIND NEUMANN_PRES MLC_LAT MLC_LON MLC_CLASS MLC_WIND MLC_PRES USA_GUST BOM_GUST BOM_GUST_PER REUNION_GUST REUNION_GUST_PER USA_SEAHGT USA_SEARAD_NE USA_SEARAD_SE USA_SEARAD_SW USA_SEARAD_NW STORM_SPEED STORM_DIR
1891040S12073 1891 4 SI MM NOT_NAMED 1891-02-09 00:00:00 TS -11.9000 72.9000 main 1864 1793 _________O____ -1 -11.9000 72.9000 TC 15 262
1891040S12073 1891 4 SI MM NOT_NAMED 1891-02-09 03:00:00 TS -12.0055 72.1377 main 1784 1714 _________P____ -1 -12.0055 72.1377 TC 15 262
1891040S12073 1891 4 SI MM NOT_NAMED 1891-02-09 06:00:00 TS -12.1000 71.4000 main 1714 1645 _________O____ -1 -12.1000 71.4000 TC 14 263
1891040S12073 1891 4 SI MM NOT_NAMED 1891-02-09 09:00:00 TS -12.1847 70.6998 main 1645 1576 _________P____ -1 -12.1847 70.6998 TC 14 262
1891040S12073 1891 4 SI MM NOT_NAMED 1891-02-09 12:00:00 TS -12.3000 70.0000 main 1576 1501 _________O____ -1 -12.3000 70.0000 TC 14 258
1891040S12073 1891 4 SI MM NOT_NAMED 1891-02-09 15:00:00 TS -12.4923 69.2651 main 1501 1418 _________P____ -1 -12.4923 69.2651 TC 15 255
1891040S12073 1891 4 SI MM NOT_NAMED 1891-02-09 18:00:00 TS -12.7000 68.5000 main 1418 1335 _________O____ -1 -12.7000 68.5000 TC 16 256
1891040S12073 1891 4 SI MM NOT_NAMED 1891-02-09 21:00:00 TS -12.8727 67.6626 main 1335 1262 _________P____ -1 -12.8727 67.6626 TC 16 255
1891040S12073 1891 4 SI MM NOT_NAMED 1891-02-10 00:00:00 TS -13.1000 66.9400 main 1254 1206 _________O____ -1 -13.0000 66.9000 TC 12 252
1891040S12073 1891 4 SI MM NOT_NAMED 1891-02-10 03:00:00 TS -13.2590 66.4649 main 1206 1166 _________P____ -1 -13.0571 66.3473 TC 9 250
1891040S12073 1891 4 SI MM NOT_NAMED 1891-02-10 06:00:00 TS -13.4000 66.0714 main 1166 1126 _________O____ -1 -13.1000 65.9000 TC 8 250
1891040S12073 1891 4 SI MM NOT_NAMED 1891-02-10 09:00:00 TS -13.5462 65.6712 main 1126 1087 _________P____ -1 -13.1924 65.4425 TC 8 253
1891040S12073 1891 4 SI MM NOT_NAMED 1891-02-10 12:00:00 TS -13.6500 65.2500 main 1087 1032 _________O____ -1 -13.3000 65.0000 TC 9 254
1891040S12073 1891 4 SI MM NOT_NAMED 1891-02-10 15:00:00 TS -13.7749 64.8250 main 1032 994 _________P____ -1 -13.4000 64.5425 TC 9 253
1891040S12073 1891 4 SI MM NOT_NAMED 1891-02-10 18:00:00 TS -13.9000 64.4000 main 994 956 _________O____ -1 -13.5000 64.1000 TC 8 255
1891040S12073 1891 4 SI MM NOT_NAMED 1891-02-10 21:00:00 TS -13.9961 63.9824 main 956 918 _________P____ -1 -13.5924 63.6999 TC 8 256
1891040S12073 1891 4 SI MM NOT_NAMED 1891-02-11 00:00:00 TS -14.1000 63.5500 main 918 874 _________O____ -1 -13.7000 63.3000 TC 9 255
1891040S12073 1891 4 SI MM NOT_NAMED 1891-02-11 03:00:00 TS -14.2387 63.0750 main 874 823 _________P____ -1 -13.8425 62.8500 TC 10 252
1891040S12073 1891 4 SI MM NOT_NAMED 1891-02-11 06:00:00 TS -14.4000 62.6000 main 823 778 _________O____ -1 -14.0000 62.4000 TC 9 249
1891040S12073 1891 4 SI MM NOT_NAMED 1891-02-11 09:00:00 TS -14.5710 62.1861 main 778 744 _________P____ -1 -14.1499 61.9924 TC 9 247
1891040S12073 1891 4 SI MM NOT_NAMED 1891-02-11 12:00:00 TS -14.7500 61.7500 main 744 690 _________O____ -1 -14.3000 61.6000 TC 10 250
1891040S12073 1891 4 SI MM NOT_NAMED 1891-02-11 15:00:00 TS -14.9215 61.1888 main 690 653 _________P____ -1 -14.4574 61.2000 TC 11 255
1891040S12073 1891 4 SI MM NOT_NAMED 1891-02-11 18:00:00 TS -15.0286 60.6714 main 653 623 _________O____ -1 -14.6000 60.8000 TC 9 260
1891040S12073 1891 4 SI MM NOT_NAMED 1891-02-11 21:00:00 TS -15.0771 60.3032 main 623 610 _________P____ -1 -14.6771 60.4521 TC 7 266
1891040S12073 1891 4 SI MM NOT_NAMED 1891-02-12 00:00:00 TS -15.0800 59.9800 main 610 584 _________O____ -1 -14.8000 60.0000 TC 10 270
1891040S12073 1891 4 SI MM NOT_NAMED 1891-02-12 03:00:00 TS -15.0702 59.3027 main 584 532 _________P____ -1 -15.0702 59.3027 TC 15 257
1891040S12073 1891 4 SI MM NOT_NAMED 1891-02-12 06:00:00 TS -15.4000 58.5000 main 532 492 _________O____ -1 -15.4000 58.5000 TC 17 247
1891040S12073 1891 4 SI MM NOT_NAMED 1891-02-12 09:00:00 TS -15.7076 57.7125 main 492 460 _________P____ -1 -15.7076 57.7125 TC 16 247
1891040S12073 1891 4 SI MM NOT_NAMED 1891-02-12 12:00:00 TS -16.0000 57.0000 main 461 446 _________O____ -1 -16.0000 57.0000 TC 13 246
1891040S12073 1891 4 SI MM NOT_NAMED 1891-02-12 15:00:00 TS -16.2421 56.4546 main 448 429 _________P____ -1 -16.2421 56.4546 TC 11 242
1891040S12073 1891 4 SI MM NOT_NAMED 1891-02-12 18:00:00 TS -16.5000 56.0000 main 432 420 _________O____ -1 -16.5000 56.0000 TC 11 237
1891040S12073 1891 4 SI MM NOT_NAMED 1891-02-12 21:00:00 TS -16.8199 55.5423 main 425 411 _________P____ -1 -16.8199 55.5423 TC 11 231
1891040S12073 1891 4 SI MM NOT_NAMED 1891-02-13 00:00:00 TS -17.2000 55.1000 main 411 385 _________O____ -1 -17.2000 55.1000 TC 12 226
1891040S12073 1891 4 SI MM NOT_NAMED 1891-02-13 03:00:00 TS -17.6349 54.6499 main 387 344 _________P____ -1 -17.6349 54.6499 TC 12 224
1891040S12073 1891 4 SI MM NOT_NAMED 1891-02-13 06:00:00 TS -18.1000 54.2000 main 344 320 _________O____ -1 -18.1000 54.2000 TC 13 224
1891040S12073 1891 4 SI MM NOT_NAMED 1891-02-13 09:00:00 TS -18.5575 53.7275 main 316 306 _________P____ -1 -18.5575 53.7275 TC 12 223
1891040S12073 1891 4 SI MM NOT_NAMED 1891-02-13 12:00:00 TS -19.0000 53.3000 main 306 297 _________O____ -1 -19.0000 53.3000 TC 11 221
1891040S12073 1891 4 SI MM NOT_NAMED 1891-02-13 15:00:00 TS -19.3999 52.9622 main 298 292 _________P____ -1 -19.3999 52.9622 TC 10 215
1891040S12073 1891 4 SI MM NOT_NAMED 1891-02-13 18:00:00 TS -19.8000 52.7000 main 298 292 _________O____ -1 -19.8000 52.7000 TC 10 209
1891040S12073 1891 4 SI MM NOT_NAMED 1891-02-13 21:00:00 TS -20.2500 52.4625 main 298 294 _________P____ -1 -20.2500 52.4625 TC 10 203
1891040S12073 1891 4 SI MM NOT_NAMED 1891-02-14 00:00:00 TS -20.7000 52.3000 main 304 301 _________O____ -1 -20.7000 52.3000 TC 9 195
1891040S12073 1891 4 SI MM NOT_NAMED 1891-02-14 03:00:00 TS -21.1075 52.2198 main 311 311 _________P____ -1 -21.1075 52.2198 TC 8 187
1891040S12073 1891 4 SI MM NOT_NAMED 1891-02-14 06:00:00 TS -21.5000 52.2000 main 313 313 _________O____ -1 -21.5000 52.2000 TC 8 182
1891040S12073 1891 4 SI MM NOT_NAMED 1891-02-14 09:00:00 TS -21.8925 52.1924 main 322 322 _________P____ -1 -21.8925 52.1924 TC 8 179
1891040S12073 1891 4 SI MM NOT_NAMED 1891-02-14 12:00:00 TS -22.3000 52.2000 main 337 337 _________O____ -1 -22.3000 52.2000 TC 9 178
1891040S12073 1891 4 SI MM NOT_NAMED 1891-02-14 15:00:00 TS -22.7425 52.1926 main 355 355 _________P____ -1 -22.7425 52.1926 TC 9 0
1891040S12073 1891 4 SI MM NOT_NAMED 1891-02-14 18:00:00 TS -23.2000 52.2000 main 383 383 _________O____ -1 -23.2000 52.2000 TC 9 177
1891040S12073 1891 4 SI MM NOT_NAMED 1891-02-14 21:00:00 TS -23.6575 52.2276 main 416 416 _________P____ -1 -23.6575 52.2276 TC 9 175
1891040S12073 1891 4 SI MM NOT_NAMED 1891-02-15 00:00:00 TS -24.1000 52.3000 main 438 438 _________O____ -1 -24.1000 52.3000 TC 9 167
1891040S12073 1891 4 SI MM NOT_NAMED 1891-02-15 03:00:00 TS -24.5150 52.4349 main 464 464 _________P____ -1 -24.5150 52.4349 TC 8 161
1891040S12073 1891 4 SI MM NOT_NAMED 1891-02-15 06:00:00 TS -24.9000 52.6000 main 487 487 _________O____ -1 -24.9000 52.6000 TC 8 159
1891040S12073 1891 4 SI MM NOT_NAMED 1891-02-15 09:00:00 TS -25.2650 52.7501 main 514 514 _________P____ -1 -25.2650 52.7501 TC 8 159
1891040S12073 1891 4 SI MM NOT_NAMED 1891-02-15 12:00:00 TS -25.6000 52.9000 main 539 539 _________O____ -1 -25.6000 52.9000 TC 7 157
1891040S12073 1891 4 SI MM NOT_NAMED 1891-02-15 15:00:00 TS -25.9075 53.0575 main 560 560 _________P____ -1 -25.9075 53.0575 TC 7 156
1891040S12073 1891 4 SI MM NOT_NAMED 1891-02-15 18:00:00 TS -26.2000 53.2000 main 587 587 _________O____ -1 -26.2000 53.2000 TC 6 159
1891040S12073 1891 4 SI MM NOT_NAMED 1891-02-15 21:00:00 TS -26.4850 53.3002 main 615 615 _________P____ -1 -26.4850 53.3002 TC 6 164
1891040S12073 1891 4 SI MM NOT_NAMED 1891-02-16 00:00:00 TS -26.8000 53.4000 main 643 643 _________O____ -1 -26.8000 53.4000 TC 7 163
1891040S12073 1891 4 SI MM NOT_NAMED 1891-02-16 03:00:00 TS -27.1775 53.5425 main 682 679 _________P____ -1 -27.1775 53.5425 TC 8 162
1891040S12073 1891 4 SI MM NOT_NAMED 1891-02-16 06:00:00 TS -27.6000 53.7000 main 718 718 _________O____ -1 -27.6000 53.7000 TC 9 163
1891040S12073 1891 4 SI MM NOT_NAMED 1891-02-16 09:00:00 TS -28.0425 53.8427 main 745 745 _________P____ -1 -28.0425 53.8427 TC 9 164
1891040S12073 1891 4 SI MM NOT_NAMED 1891-02-16 12:00:00 TS -28.5000 54.0000 main 788 788 _________O____ -1 -28.5000 54.0000 TC 10 161
1891040S12073 1891 4 SI MM NOT_NAMED 1891-02-16 15:00:00 TS -28.9575 54.1925 main 832 832 _________P____ -1 -28.9575 54.1925 TC 10 159
1891040S12073 1891 4 SI MM NOT_NAMED 1891-02-16 18:00:00 TS -29.4000 54.4000 main 872 872 _________O____ -1 -29.4000 54.4000 TC 9 157
1891040S12073 1891 4 SI MM NOT_NAMED 1891-02-16 21:00:00 TS -29.8100 54.6023 main 913 913 _________P____ -1 -29.8100 54.6023 TC 9 157
1891040S12073 1891 4 SI MM NOT_NAMED 1891-02-17 00:00:00 TS -30.2000 54.8000 main 954 _________O____ -1 -30.2000 54.8000 TC 9 156

About IBTrACS Database

This database is a web-friendly format of International Best Track Archive for Climate Stewardship (IBTrACS), a global best track data archive curated by NOAA dating back to 1842.

Updated: 2021-11-26